Time;durP1;ratioP1;P1;durP2;ratioP2;P2;SDS_P1;SDS_P2;PMS_P1;PMS_P2;Temp;Humidity;BMP_temperature;BMP_pressure;BME280_temperature;BME280_humidity;BME280_pressure;Samples;Min_cycle;Max_cycle;Signal;HPM_P1;HPM_P2
2022/01/03 00:01:44;;;;;;;2.08;1.40;;;7.70;99.90;;;;;;5090578;28;20140;-88
2022/01/03 00:04:11;;;;;;;6.32;1.67;;;7.80;99.90;;;;;;5056953;28;20502;-88
2022/01/03 00:06:38;;;;;;;;;;;7.90;99.90;;;;;;5057365;28;20052;-87
2022/01/03 00:09:05;;;;;;;4.55;1.42;;;8.70;99.90;;;;;;5106801;28;19924;-88
2022/01/03 00:11:31;;;;;;;3.50;1.60;;;8.00;99.90;;;;;;5090639;28;20449;-88
2022/01/03 00:13:57;;;;;;;4.75;2.47;;;8.00;99.90;;;;;;5056434;28;20048;-88
2022/01/03 00:16:24;;;;;;;3.10;1.50;;;8.00;99.90;;;;;;5090250;28;20078;-88
2022/01/03 00:18:54;;;;;;;4.80;1.52;;;8.10;99.90;;;;;;5056610;28;20375;-88
2022/01/03 00:21:25;;;;;;;7.85;1.90;;;8.10;99.90;;;;;;5073461;28;20139;-87
2022/01/03 00:24:12;;;;;;;6.72;2.25;;;8.10;99.90;;;;;;5056632;28;20052;-88
2022/01/03 00:26:39;;;;;;;5.95;1.67;;;8.20;99.90;;;;;;5056137;28;20089;-88
2022/01/03 00:29:07;;;;;;;;;;;8.20;99.90;;;;;;5090149;28;20071;-88
2022/01/03 00:31:41;;;;;;;4.18;2.00;;;8.20;99.90;;;;;;5056453;28;19926;-87
2022/01/03 00:34:10;;;;;;;6.90;2.50;;;8.30;99.90;;;;;;5089947;28;20131;-88
2022/01/03 00:36:39;;;;;;;7.78;1.85;;;8.30;99.90;;;;;;5056513;28;20086;-88
2022/01/03 00:39:07;;;;;;;5.97;1.98;;;8.30;99.90;;;;;;5055835;28;20714;-87
2022/01/03 00:41:37;;;;;;;4.22;2.15;;;8.30;99.90;;;;;;5055947;28;20414;-87
2022/01/03 00:44:04;;;;;;;7.88;2.33;;;8.40;99.90;;;;;;5055733;28;20055;-88
2022/01/03 00:46:31;;;;;;;;;;;8.30;99.90;;;;;;5056230;28;20048;-88
2022/01/03 00:48:59;;;;;;;9.15;2.72;;;8.40;99.90;;;;;;5089309;28;20404;-88
2022/01/03 00:51:25;;;;;;;6.10;2.25;;;8.30;99.90;;;;;;5056243;28;20114;-87
2022/01/03 00:53:51;;;;;;;6.57;2.23;;;8.50;99.90;;;;;;5055697;28;20107;-88
2022/01/03 00:56:46;;;;;;;6.20;2.17;;;8.40;99.90;;;;;;5089111;28;20443;-88
2022/01/03 00:59:16;;;;;;;4.22;1.73;;;8.40;99.90;;;;;;5054531;28;20052;-88
2022/01/03 01:01:50;;;;;;;7.50;2.33;;;8.40;99.90;;;;;;5072467;28;20048;-87
2022/01/03 01:04:18;;;;;;;5.85;2.47;;;8.50;99.90;;;;;;5055579;28;20127;-88
2022/01/03 01:06:54;;;;;;;12.30;2.85;;;8.50;99.90;;;;;;5072033;28;20037;-88
2022/01/03 01:09:22;;;;;;;8.50;2.22;;;8.50;99.90;;;;;;5055863;28;20048;-87
2022/01/03 01:11:55;;;;;;;5.53;2.22;;;8.50;99.90;;;;;;5089247;28;20071;-88
2022/01/03 01:14:23;;;;;;;14.55;2.72;;;8.50;99.90;;;;;;5055649;28;20394;-88
2022/01/03 01:16:49;;;;;;;6.30;2.33;;;8.50;99.90;;;;;;5055859;28;20471;-87
2022/01/03 01:19:17;;;;;;;10.23;2.40;;;8.50;99.90;;;;;;5055405;28;20475;-87
2022/01/03 01:21:48;;;;;;;7.45;2.15;;;8.50;99.90;;;;;;5054941;28;20094;-87
2022/01/03 01:24:16;;;;;;;9.88;2.08;;;7.80;99.90;;;;;;5055170;28;20048;-87
2022/01/03 01:29:27;;;;;;;11.40;3.00;;;8.60;99.90;;;;;;5072303;28;20497;-88
2022/01/03 01:31:57;;;;;;;8.20;2.00;;;8.50;99.90;;;;;;5054999;28;20116;-88
2022/01/03 01:34:28;;;;;;;9.77;2.40;;;8.50;99.90;;;;;;5088997;28;20086;-87
2022/01/03 01:36:56;;;;;;;4.53;2.17;;;8.50;99.90;;;;;;5071512;28;20059;-89
2022/01/03 01:39:28;;;;;;;9.43;2.40;;;8.50;99.90;;;;;;5055413;28;20036;-87
2022/01/03 01:41:59;;;;;;;11.35;3.22;;;8.50;99.90;;;;;;5055060;28;20122;-89
2022/01/03 01:44:33;;;;;;;9.95;2.53;;;8.50;99.90;;;;;;5088438;28;20475;-88
2022/01/03 01:47:04;;;;;;;18.25;2.80;;;8.20;99.90;;;;;;5054664;28;20058;-87
2022/01/03 01:49:38;;;;;;;9.80;2.38;;;8.50;99.90;;;;;;5054835;28;20487;-89
2022/01/03 01:52:04;;;;;;;11.38;3.30;;;8.50;99.90;;;;;;5071279;28;20118;-87
2022/01/03 01:54:36;;;;;;;9.38;2.33;;;8.50;99.90;;;;;;5071104;28;20052;-87
2022/01/03 01:57:17;;;;;;;12.65;2.58;;;8.50;99.90;;;;;;5054493;28;20434;-88
2022/01/03 02:00:15;;;;;;;15.27;3.30;;;7.70;99.90;;;;;;5054853;28;20052;-87
2022/01/03 02:02:43;;;;;;;5.53;2.08;;;8.30;99.90;;;;;;5055068;28;20394;-87
2022/01/03 02:05:22;;;;;;;11.23;3.00;;;8.60;99.90;;;;;;5070688;28;20079;-87
2022/01/03 02:07:53;;;;;;;7.30;2.80;;;8.60;99.90;;;;;;5054976;28;20052;-87
2022/01/03 02:10:24;;;;;;;12.07;2.92;;;8.60;99.90;;;;;;5054302;28;20124;-87
2022/01/03 02:12:50;;;;;;;9.85;2.80;;;8.60;99.90;;;;;;5054512;28;20509;-87
2022/01/03 02:15:18;;;;;;;9.67;2.53;;;8.60;99.90;;;;;;5053907;28;20037;-87
2022/01/03 02:17:47;;;;;;;13.70;3.75;;;8.60;99.90;;;;;;5054571;28;20044;-87
2022/01/03 02:20:20;;;;;;;8.38;2.58;;;8.70;99.90;;;;;;5054379;28;20045;-87
2022/01/03 02:22:46;;;;;;;5.95;2.42;;;8.60;99.90;;;;;;5071314;28;20063;-87
2022/01/03 02:25:15;;;;;;;7.07;2.55;;;8.60;99.90;;;;;;5053424;28;20074;-87
2022/01/03 02:27:44;;;;;;;11.13;3.33;;;8.60;99.90;;;;;;5054230;28;20044;-87
2022/01/03 02:30:17;;;;;;;13.70;2.33;;;8.60;99.90;;;;;;5054520;28;20059;-87
2022/01/03 02:32:43;;;;;;;7.25;2.53;;;8.60;99.90;;;;;;5054039;28;20487;-87
2022/01/03 02:35:10;;;;;;;11.10;2.17;;;8.00;99.90;;;;;;5053946;28;20093;-87
2022/01/03 02:37:38;;;;;;;10.13;2.45;;;8.60;99.90;;;;;;5054303;28;20360;-87
2022/01/03 02:40:10;;;;;;;6.80;2.58;;;8.50;99.90;;;;;;5054027;28;20056;-88
2022/01/03 02:42:38;;;;;;;14.23;3.15;;;8.60;99.90;;;;;;5088155;28;20053;-87
2022/01/03 02:45:08;;;;;;;5.97;2.17;;;8.50;99.90;;;;;;5053808;28;20502;-88
2022/01/03 02:47:37;;;;;;;8.10;2.63;;;8.50;99.90;;;;;;5054484;28;20063;-87
2022/01/03 02:50:05;;;;;;;11.93;3.85;;;8.50;99.90;;;;;;5054227;28;20048;-89
2022/01/03 02:52:34;;;;;;;13.00;3.63;;;8.50;99.90;;;;;;5054760;28;20122;-87
2022/01/03 02:55:01;;;;;;;15.77;3.17;;;8.60;99.90;;;;;;5053922;28;20114;-87
2022/01/03 02:57:37;;;;;;;16.08;3.15;;;9.30;99.90;;;;;;5086726;28;20525;-87
2022/01/03 03:00:07;;;;;;;11.02;3.00;;;8.60;99.90;;;;;;5054173;28;20045;-90
2022/01/03 03:02:36;;;;;;;7.60;2.58;;;8.50;99.90;;;;;;5087386;28;20048;-87
2022/01/03 03:05:05;;;;;;;8.48;2.47;;;8.50;99.90;;;;;;5053915;28;20131;-87
2022/01/03 03:07:34;;;;;;;5.72;2.85;;;7.70;99.90;;;;;;5053861;28;20044;-87
2022/01/03 03:10:00;;;;;;;6.80;2.60;;;8.50;99.90;;;;;;5054176;28;20056;-87
2022/01/03 03:12:28;;;;;;;8.18;2.78;;;8.50;99.90;;;;;;5053643;28;20110;-87
2022/01/03 03:14:54;;;;;;;8.02;2.65;;;7.60;99.90;;;;;;5070905;28;20053;-86
2022/01/03 03:17:22;;;;;;;11.57;3.33;;;8.40;99.90;;;;;;5053401;28;20051;-87
2022/01/03 03:19:57;;;;;;;11.98;2.67;;;8.40;99.90;;;;;;5054655;28;20059;-87
2022/01/03 03:22:25;;;;;;;6.32;2.38;;;8.40;99.90;;;;;;5087236;28;20063;-87
2022/01/03 03:24:58;;;;;;;4.45;2.45;;;8.40;99.90;;;;;;5087519;28;20052;-87
2022/01/03 03:27:26;;;;;;;10.20;2.55;;;8.40;99.90;;;;;;5069924;28;20291;-87
2022/01/03 03:29:54;;;;;;;10.40;2.75;;;8.50;99.90;;;;;;5053966;28;20341;-87
2022/01/03 03:32:25;;;;;;;5.88;2.60;;;8.40;99.90;;;;;;5053527;28;20044;-87
2022/01/03 03:34:51;;;;;;;9.20;2.60;;;8.40;99.90;;;;;;5087089;28;20040;-87
2022/01/03 03:37:21;;;;;;;6.50;2.10;;;8.30;99.90;;;;;;5053113;28;20479;-87
2022/01/03 03:39:49;;;;;;;7.30;2.60;;;8.30;99.90;;;;;;5054125;28;20174;-87
2022/01/03 03:42:16;;;;;;;13.10;3.00;;;8.30;99.90;;;;;;5053449;28;20090;-87
2022/01/03 03:44:42;;;;;;;11.30;3.08;;;8.20;99.90;;;;;;5087613;28;20056;-87
2022/01/03 03:47:08;;;;;;;7.95;2.75;;;8.20;99.90;;;;;;5057112;28;20479;-87
2022/01/03 03:49:35;;;;;;;7.05;2.50;;;8.20;99.90;;;;;;5056852;28;20055;-87
2022/01/03 03:52:02;;;;;;;4.00;2.40;;;8.20;99.90;;;;;;5057268;28;20494;-87
2022/01/03 03:54:32;;;;;;;12.55;2.58;;;8.20;99.90;;;;;;5090143;28;20056;-88
2022/01/03 03:56:59;;;;;;;13.40;3.60;;;8.30;99.90;;;;;;5056663;28;20044;-87
2022/01/03 03:59:28;;;;;;;6.65;3.00;;;8.10;99.90;;;;;;5056236;28;20044;-87
2022/01/03 04:01:59;;;;;;;13.70;2.70;;;8.20;99.90;;;;;;5056948;28;20057;-87
2022/01/03 04:04:34;;;;;;;13.45;3.53;;;8.30;99.90;;;;;;5056895;28;20074;-87
2022/01/03 04:07:00;;;;;;;12.07;3.03;;;8.30;99.90;;;;;;5073702;28;20048;-87
2022/01/03 04:09:28;;;;;;;13.35;3.38;;;8.20;99.90;;;;;;5056328;28;20178;-87
2022/01/03 04:11:54;;;;;;;11.73;3.15;;;8.20;99.90;;;;;;5057150;28;20048;-86
2022/01/03 04:14:20;;;;;;;7.00;2.30;;;8.30;99.90;;;;;;5056485;28;20135;-87
2022/01/03 04:16:46;;;;;;;5.00;2.40;;;8.30;99.90;;;;;;5073630;28;20041;-87
2022/01/03 04:19:12;;;;;;;11.63;2.87;;;8.30;99.90;;;;;;5056712;28;20048;-87
2022/01/03 04:21:39;;;;;;;6.28;2.30;;;8.30;99.90;;;;;;5056205;28;20478;-87
2022/01/03 04:24:10;;;;;;;7.40;3.47;;;8.30;99.90;;;;;;5089911;28;20044;-87
2022/01/03 04:26:43;;;;;;;7.05;2.92;;;8.30;99.90;;;;;;5089695;28;20430;-87
2022/01/03 04:29:11;;;;;;;15.75;3.40;;;8.30;99.90;;;;;;5056896;28;20049;-87
2022/01/03 04:31:38;;;;;;;9.40;2.50;;;8.30;99.90;;;;;;5056257;28;20048;-87
2022/01/03 04:34:04;;;;;;;13.80;2.85;;;8.30;99.90;;;;;;5056573;28;20495;-87
2022/01/03 04:36:29;;;;;;;7.43;2.50;;;8.30;99.90;;;;;;5089498;28;20045;-87
2022/01/03 04:38:55;;;;;;;13.77;3.60;;;8.30;99.90;;;;;;5056542;28;20044;-86
2022/01/03 04:41:21;;;;;;;6.90;3.10;;;8.30;99.90;;;;;;5089217;28;20081;-87
2022/01/03 04:43:47;;;;;;;10.73;3.47;;;8.30;99.90;;;;;;5056283;28;20056;-89
2022/01/03 04:46:13;;;;;;;7.37;2.77;;;7.50;99.90;;;;;;5055774;28;20040;-87
2022/01/03 04:48:41;;;;;;;7.70;3.43;;;8.30;99.90;;;;;;5072587;28;20071;-87
2022/01/03 04:51:07;;;;;;;16.75;4.63;;;8.40;99.90;;;;;;5056211;28;20053;-86
2022/01/03 04:53:39;;;;;;;13.07;3.67;;;8.40;99.90;;;;;;5055943;28;20055;-87
2022/01/03 04:56:11;;;;;;;7.80;3.28;;;8.40;99.90;;;;;;5038971;28;20220;-86
2022/01/03 04:58:37;;;;;;;15.98;4.00;;;8.40;99.90;;;;;;5088917;28;20056;-87
2022/01/03 05:01:06;;;;;;;14.20;4.90;;;8.40;99.90;;;;;;5056096;28;20048;-87
2022/01/03 05:03:35;;;;;;;9.98;3.33;;;8.40;99.90;;;;;;5055288;28;20052;-87
2022/01/03 05:06:02;;;;;;;16.15;4.28;;;8.20;99.90;;;;;;5055413;28;20554;-87
2022/01/03 05:08:29;;;;;;;12.25;3.13;;;8.40;99.90;;;;;;5072299;28;20052;-87
2022/01/03 05:10:55;;;;;;;12.13;3.38;;;8.40;99.90;;;;;;5055721;28;20103;-87
2022/01/03 05:13:21;;;;;;;13.52;4.10;;;8.40;99.90;;;;;;5071759;28;20041;-87
2022/01/03 05:15:47;;;;;;;10.73;3.07;;;8.40;99.90;;;;;;5088876;28;20044;-87
2022/01/03 05:18:21;;;;;;;16.77;3.45;;;8.40;99.90;;;;;;5056591;28;20132;-86
2022/01/03 05:20:50;;;;;;;11.73;4.35;;;7.70;99.90;;;;;;5054792;28;20562;-87
2022/01/03 05:23:16;;;;;;;12.50;3.33;;;8.40;99.90;;;;;;5055826;28;20048;-87
2022/01/03 05:25:42;;;;;;;12.70;3.80;;;8.50;99.90;;;;;;5054888;28;20139;-87
2022/01/03 05:28:08;;;;;;;11.50;3.70;;;8.40;99.90;;;;;;5072189;28;20132;-86
2022/01/03 05:30:34;;;;;;;15.53;3.93;;;8.40;99.90;;;;;;5088403;28;20131;-87
2022/01/03 05:33:00;;;;;;;9.05;3.67;;;8.40;99.90;;;;;;5055401;28;20048;-87
2022/01/03 05:35:26;;;;;;;12.85;3.38;;;8.40;99.90;;;;;;5054953;28;20047;-89
2022/01/03 05:37:52;;;;;;;17.73;4.17;;;8.40;99.90;;;;;;5055069;28;20138;-88
2022/01/03 05:40:18;;;;;;;20.90;3.10;;;8.40;99.90;;;;;;5088847;28;20043;-87
2022/01/03 05:42:46;;;;;;;11.35;2.80;;;8.40;99.90;;;;;;5054931;28;20122;-87
2022/01/03 05:45:12;;;;;;;16.80;3.47;;;8.40;99.90;;;;;;5071813;28;20048;-87
2022/01/03 05:47:45;;;;;;;12.82;3.13;;;8.40;99.90;;;;;;5054898;28;20399;-87
2022/01/03 05:50:11;;;;;;;14.88;3.72;;;8.30;99.90;;;;;;5055153;28;20146;-87
2022/01/03 05:52:37;;;;;;;13.48;4.32;;;8.30;99.90;;;;;;5054251;28;20049;-87
2022/01/03 05:55:07;;;;;;;12.10;3.10;;;8.30;99.90;;;;;;5054488;28;20131;-88
2022/01/03 05:57:35;;;;;;;13.93;3.55;;;8.40;99.90;;;;;;5071066;28;20048;-88
2022/01/03 06:00:05;;;;;;;9.57;2.78;;;8.20;99.90;;;;;;5038666;28;20098;-87
2022/01/03 06:02:36;;;;;;;11.35;2.88;;;8.40;99.90;;;;;;5054868;28;20052;-87
2022/01/03 06:05:07;;;;;;;9.60;2.83;;;8.40;99.90;;;;;;5054823;28;20080;-87
2022/01/03 06:07:41;;;;;;;10.70;3.15;;;8.30;99.90;;;;;;5070934;28;20106;-88
2022/01/03 06:10:13;;;;;;;7.15;3.03;;;8.30;99.90;;;;;;5054613;28;20090;-87
2022/01/03 06:12:38;;;;;;;12.77;3.35;;;8.60;99.90;;;;;;5053965;28;20131;-86
2022/01/03 06:15:04;;;;;;;11.80;3.97;;;8.30;99.90;;;;;;5054737;28;20080;-87
2022/01/03 06:17:30;;;;;;;11.77;3.33;;;8.30;99.90;;;;;;5054746;28;20101;-87
2022/01/03 06:19:56;;;;;;;14.43;3.77;;;8.30;99.90;;;;;;5070805;28;20377;-87
2022/01/03 06:22:22;;;;;;;13.93;4.13;;;8.30;99.90;;;;;;5071225;28;20067;-87
2022/01/03 06:24:48;;;;;;;10.70;3.17;;;8.30;99.90;;;;;;5053967;28;20040;-87
2022/01/03 06:27:16;;;;;;;9.33;5.07;;;8.30;99.90;;;;;;5053995;28;20059;-88
2022/01/03 06:29:42;;;;;;;8.45;2.70;;;8.30;99.90;;;;;;5053825;28;20506;-87
2022/01/03 06:32:07;;;;;;;13.40;4.20;;;8.30;99.90;;;;;;5054619;28;20139;-87
2022/01/03 06:34:33;;;;;;;12.53;3.40;;;8.40;99.90;;;;;;5054424;28;20049;-87
2022/01/03 06:36:59;;;;;;;19.50;4.37;;;8.30;99.90;;;;;;5054362;28;20112;-87
2022/01/03 06:39:29;;;;;;;14.73;3.33;;;8.40;99.90;;;;;;5037785;28;20071;-87
2022/01/03 06:42:03;;;;;;;14.93;3.17;;;7.80;99.90;;;;;;5054067;28;20056;-87
2022/01/03 06:44:28;;;;;;;12.00;4.45;;;7.70;99.90;;;;;;5087773;28;20048;-87
2022/01/03 06:47:01;;;;;;;14.33;4.27;;;8.20;99.90;;;;;;5053880;28;20063;-87
2022/01/03 06:49:27;;;;;;;12.40;2.85;;;8.20;99.90;;;;;;5071113;28;20048;-88
2022/01/03 06:51:53;;;;;;;9.73;3.70;;;8.20;99.90;;;;;;5070884;28;20048;-87
2022/01/03 06:54:19;;;;;;;10.23;3.97;;;8.20;99.90;;;;;;5071147;28;20467;-87
2022/01/03 06:56:44;;;;;;;9.63;3.60;;;8.20;99.90;;;;;;5070476;28;20453;-89
2022/01/03 06:59:10;;;;;;;14.83;3.50;;;8.30;99.90;;;;;;5054600;28;20048;-85
2022/01/03 07:01:36;;;;;;;15.30;3.87;;;8.20;99.90;;;;;;5054041;28;20131;-83
2022/01/03 07:04:03;;;;;;;13.48;2.97;;;8.30;99.90;;;;;;5070260;28;20286;-86
2022/01/03 07:06:43;;;;;;;;;;;;;;;;;;;;;
2022/01/03 07:09:12;;;;;;;9.90;3.45;;;7.60;99.90;;;;;;5073461;28;20041;-92
2022/01/03 07:11:37;;;;;;;9.65;3.42;;;8.40;99.90;;;;;;5071113;28;20063;-87
2022/01/03 07:18:56;;;;;;;10.07;3.33;;;8.40;99.90;;;;;;5070593;28;20494;-87
2022/01/03 07:19:51;;;;;;;9.52;3.75;;;8.50;99.90;;;;;;5071667;28;20063;-89
2022/01/03 07:22:19;;;;;;;8.63;3.40;;;7.80;99.90;;;;;;5074749;28;20050;-91
2022/01/03 07:25:05;;;;;;;7.80;3.35;;;8.40;99.90;;;;;;5058681;28;20037;-88
2022/01/03 07:27:31;;;;;;;20.00;4.22;;;8.40;99.90;;;;;;5058197;28;20051;-88
2022/01/03 07:30:05;;;;;;;12.90;3.53;;;8.40;99.90;;;;;;5057631;28;20045;-87
2022/01/03 07:32:31;;;;;;;10.90;4.53;;;9.30;99.90;;;;;;5074268;28;20045;-90
2022/01/03 07:34:59;;;;;;;12.80;3.83;;;8.40;99.90;;;;;;5057683;28;20045;-87
2022/01/03 07:37:25;;;;;;;16.27;3.83;;;8.40;99.90;;;;;;5057563;28;20102;-87
2022/01/03 07:39:52;;;;;;;9.60;3.70;;;8.40;99.90;;;;;;5057511;28;20044;-86
2022/01/03 07:42:18;;;;;;;9.77;2.88;;;8.40;99.90;;;;;;5057614;28;20051;-87
2022/01/03 07:44:43;;;;;;;20.10;3.73;;;8.40;99.90;;;;;;5057903;28;20049;-86
2022/01/03 07:47:09;;;;;;;11.40;3.22;;;8.40;99.90;;;;;;5057458;28;20051;-87
2022/01/03 07:49:37;;;;;;;13.93;3.87;;;8.40;99.90;;;;;;5058092;28;20045;-87
2022/01/03 07:52:03;;;;;;;9.38;3.88;;;8.50;99.90;;;;;;5057645;28;20083;-87
2022/01/03 07:54:32;;;;;;;7.50;3.13;;;8.40;99.90;;;;;;5057032;28;20513;-87
2022/01/03 07:57:03;;;;;;;12.07;3.60;;;8.40;99.90;;;;;;5057083;28;20089;-87
2022/01/03 07:59:29;;;;;;;14.75;3.58;;;8.40;99.90;;;;;;5090870;28;20127;-86
2022/01/03 08:01:55;;;;;;;13.97;3.57;;;8.50;99.90;;;;;;5056678;28;20506;-84
2022/01/03 08:04:21;;;;;;;11.97;3.33;;;8.40;99.90;;;;;;5090299;28;20070;-86
2022/01/03 08:06:49;;;;;;;11.97;3.87;;;8.40;99.90;;;;;;5057343;28;20048;-95
2022/01/03 08:09:15;;;;;;;14.63;3.75;;;8.50;99.90;;;;;;5073807;28;20045;-86
2022/01/03 08:11:41;;;;;;;21.33;4.13;;;8.50;99.90;;;;;;5074015;28;20395;-87
2022/01/03 08:14:06;;;;;;;19.23;3.17;;;8.50;99.90;;;;;;5090487;28;20503;-87
2022/01/03 08:16:35;;;;;;;15.15;4.30;;;8.50;99.90;;;;;;5057733;28;20036;-87
2022/01/03 08:19:02;;;;;;;13.00;3.47;;;8.50;99.90;;;;;;5056814;28;20052;-88
2022/01/03 08:21:30;;;;;;;12.80;3.65;;;8.60;99.90;;;;;;5056863;28;20285;-87
2022/01/03 08:23:56;;;;;;;9.50;2.85;;;8.60;99.90;;;;;;5056380;28;20044;-87
2022/01/03 08:26:30;;;;;;;12.07;2.65;;;8.60;99.90;;;;;;5056925;28;20040;-86
2022/01/03 08:28:55;;;;;;;14.13;3.60;;;8.60;99.90;;;;;;5073540;28;20053;-86
2022/01/03 08:31:22;;;;;;;13.17;3.43;;;8.60;99.90;;;;;;5056920;28;20109;-86
2022/01/03 08:33:48;;;;;;;;;;;8.70;99.90;;;;;;5057681;28;20052;-86
2022/01/03 08:36:16;;;;;;;12.30;3.35;;;8.70;99.90;;;;;;5090365;28;19943;-86
2022/01/03 08:38:51;;;;;;;11.85;3.10;;;8.70;99.90;;;;;;5073828;28;20403;-86
2022/01/03 08:41:17;;;;;;;12.63;3.20;;;8.60;99.90;;;;;;5057176;28;20059;-86
2022/01/03 08:43:45;;;;;;;15.27;3.97;;;8.70;99.90;;;;;;5056844;28;20049;-86
2022/01/03 08:46:11;;;;;;;12.35;3.85;;;8.80;99.90;;;;;;5056400;28;20083;-86
2022/01/03 08:48:43;;;;;;;9.90;3.30;;;8.80;99.90;;;;;;5057011;28;20049;-86
2022/01/03 08:51:12;;;;;;;10.45;3.03;;;8.80;99.90;;;;;;5073324;28;20515;-86
2022/01/03 08:53:37;;;;;;;10.70;3.17;;;8.80;99.90;;;;;;5073212;28;20040;-86
2022/01/03 08:56:04;;;;;;;10.57;3.93;;;8.80;99.90;;;;;;5055544;28;20060;-86
2022/01/03 08:58:30;;;;;;;11.80;3.97;;;8.90;99.90;;;;;;5072826;28;20517;-88
2022/01/03 09:00:56;;;;;;;13.38;3.70;;;8.60;99.90;;;;;;5089860;28;20045;-87
2022/01/03 09:03:22;;;;;;;13.90;3.27;;;8.90;99.90;;;;;;5056687;28;20055;-84
2022/01/03 09:05:54;;;;;;;7.80;3.07;;;8.80;99.90;;;;;;5073181;28;20051;-86
2022/01/03 09:08:26;;;;;;;6.45;2.85;;;8.80;99.90;;;;;;5073226;28;20052;-86
2022/01/03 09:10:53;;;;;;;8.73;3.67;;;8.90;99.90;;;;;;5056230;28;20060;-86
2022/01/03 09:13:21;;;;;;;11.80;3.13;;;8.90;99.90;;;;;;5072778;28;20091;-86
2022/01/03 09:15:48;;;;;;;13.65;3.83;;;8.90;99.90;;;;;;5056340;28;20045;-86
2022/01/03 09:18:17;;;;;;;10.90;3.13;;;8.20;99.90;;;;;;5055703;28;20057;-86
2022/01/03 09:20:45;;;;;;;9.55;3.28;;;8.10;99.90;;;;;;5055910;28;20556;-88
2022/01/03 09:23:26;;;;;;;15.25;3.53;;;9.00;99.90;;;;;;5071701;28;20040;-85
2022/01/03 09:28:57;;;;;;;9.02;2.80;;;8.20;99.90;;;;;;5072568;28;20453;-87
2022/01/03 09:31:41;;;;;;;7.97;3.15;;;8.90;99.90;;;;;;5055543;28;20051;-88
2022/01/03 09:34:09;;;;;;;10.48;3.42;;;9.00;99.90;;;;;;5055477;28;20074;-92
2022/01/03 09:36:38;;;;;;;12.05;3.03;;;9.00;99.90;;;;;;5064247;28;20402;-87
2022/01/03 09:39:08;;;;;;;14.20;4.07;;;9.00;99.90;;;;;;5057974;28;20092;-87
2022/01/03 09:41:36;;;;;;;6.25;3.00;;;9.00;99.90;;;;;;5055586;28;20098;-87
2022/01/03 09:44:05;;;;;;;11.05;3.65;;;9.00;99.90;;;;;;5071761;28;20055;-87
2022/01/03 09:46:42;;;;;;;17.45;3.72;;;9.10;99.90;;;;;;5055533;28;20047;-86
2022/01/03 09:49:13;;;;;;;10.43;3.38;;;8.60;99.90;;;;;;5055115;28;20052;-87
2022/01/03 09:51:43;;;;;;;12.45;2.92;;;9.10;99.90;;;;;;5055922;28;20048;-86
2022/01/03 09:54:15;;;;;;;7.53;3.28;;;9.10;99.90;;;;;;5071686;28;20045;-86
2022/01/03 09:56:42;;;;;;;8.15;3.15;;;9.10;99.90;;;;;;5055090;28;20557;-86
2022/01/03 09:59:09;;;;;;;17.73;4.25;;;9.10;99.90;;;;;;5071777;28;20155;-87
2022/01/03 10:01:35;;;;;;;;;;;9.10;99.90;;;;;;5056169;28;20052;-86
2022/01/03 10:04:10;;;;;;;13.48;3.13;;;9.10;99.90;;;;;;5055673;28;19920;-86
2022/01/03 10:06:36;;;;;;;7.68;3.53;;;9.10;99.90;;;;;;5087957;28;20410;-86
2022/01/03 10:09:27;;;;;;;13.55;2.85;;;9.20;99.90;;;;;;5058717;28;20519;-88
2022/01/03 10:11:53;;;;;;;16.75;3.45;;;9.20;99.90;;;;;;5055105;28;20051;-84
2022/01/03 10:14:19;;;;;;;20.13;4.20;;;9.20;99.90;;;;;;5054433;28;20044;-84
2022/01/03 10:16:46;;;;;;;11.57;3.20;;;9.20;99.90;;;;;;5071503;28;20131;-84
2022/01/03 10:19:15;;;;;;;11.30;3.28;;;9.20;99.90;;;;;;5054581;28;20052;-84
2022/01/03 10:21:46;;;;;;;6.68;3.03;;;9.20;99.90;;;;;;5071074;28;20510;-84
2022/01/03 10:24:20;;;;;;;13.02;3.95;;;8.50;99.90;;;;;;5054705;28;20056;-84
2022/01/03 10:26:54;;;;;;;10.30;3.08;;;9.80;99.90;;;;;;5054320;28;20471;-85
2022/01/03 10:29:24;;;;;;;10.27;3.50;;;9.20;99.90;;;;;;5054362;28;20087;-84
2022/01/03 10:31:55;;;;;;;11.35;3.47;;;9.30;99.90;;;;;;5055904;28;20555;-85
2022/01/03 10:34:28;;;;;;;14.25;3.30;;;9.30;99.90;;;;;;5054258;28;20491;-84
2022/01/03 10:36:56;;;;;;;8.80;2.80;;;9.30;99.90;;;;;;5054817;28;20059;-85
2022/01/03 10:39:27;;;;;;;8.68;3.03;;;9.30;99.90;;;;;;5087255;28;20114;-86
2022/01/03 10:42:17;;;;;;;8.38;2.75;;;8.50;99.90;;;;;;5088043;28;20506;-85
2022/01/03 10:44:43;;;;;;;10.13;2.85;;;9.30;99.90;;;;;;5087652;28;20048;-85
2022/01/03 10:47:13;;;;;;;10.35;3.33;;;9.30;99.90;;;;;;5054414;28;20489;-84
2022/01/03 10:49:41;;;;;;;19.35;3.28;;;9.40;99.90;;;;;;5087992;28;20479;-85
2022/01/03 10:52:10;;;;;;;9.48;2.88;;;9.40;99.90;;;;;;5054475;28;20041;-85
2022/01/03 10:54:36;;;;;;;12.80;3.40;;;9.60;99.90;;;;;;5090527;28;20044;-85
2022/01/03 10:57:03;;;;;;;19.90;3.90;;;9.60;99.90;;;;;;5091644;28;20063;-86
2022/01/03 10:59:31;;;;;;;8.88;2.75;;;9.70;99.90;;;;;;5073789;28;20133;-86
2022/01/03 11:02:02;;;;;;;8.65;2.78;;;9.60;99.90;;;;;;5074646;28;20033;-84
2022/01/03 11:04:44;;;;;;;8.05;3.47;;;9.60;99.90;;;;;;5057131;28;20060;-83
2022/01/03 11:13:19;;;;;;;11.40;2.53;;;9.60;99.90;;;;;;5074345;28;20056;-85
2022/01/03 11:15:58;;;;;;;6.43;2.75;;;9.60;99.90;;;;;;5057197;28;20391;-86
2022/01/03 11:18:28;;;;;;;13.68;3.60;;;9.70;99.90;;;;;;5090580;28;20045;-85
2022/01/03 11:21:23;;;;;;;7.40;3.15;;;9.80;99.90;;;;;;5091310;28;20063;-87
2022/01/03 11:24:11;;;;;;;11.23;2.85;;;9.90;99.90;;;;;;5057368;28;20098;-86
2022/01/03 11:26:49;;;;;;;7.90;3.15;;;9.90;99.90;;;;;;5056573;28;20184;-84
2022/01/03 11:29:16;;;;;;;4.72;2.25;;;9.90;99.90;;;;;;5057262;28;20195;-86
2022/01/03 11:31:43;;;;;;;10.23;3.08;;;9.90;99.90;;;;;;5091268;28;20113;-87
2022/01/03 11:34:10;;;;;;;8.80;2.50;;;9.90;99.90;;;;;;5057232;28;20040;-84
2022/01/03 11:36:38;;;;;;;6.85;3.15;;;9.90;99.90;;;;;;5056831;28;20361;-84
2022/01/03 11:39:10;;;;;;;10.18;3.15;;;9.90;99.90;;;;;;5090467;28;20040;-85
2022/01/03 11:41:39;;;;;;;4.88;2.20;;;9.90;99.90;;;;;;5089921;28;20082;-85
2022/01/03 11:44:05;;;;;;;6.40;2.58;;;9.80;99.90;;;;;;5056087;28;20090;-84
2022/01/03 11:46:31;;;;;;;20.35;3.03;;;9.90;99.90;;;;;;5072928;28;20048;-85
2022/01/03 11:48:57;;;;;;;16.55;3.13;;;10.10;99.90;;;;;;5056762;28;20052;-84
2022/01/03 11:51:28;;;;;;;12.13;3.05;;;10.40;99.90;;;;;;5089691;28;20044;-85
2022/01/03 11:53:54;;;;;;;7.28;2.42;;;10.40;99.90;;;;;;5073523;28;20135;-84
2022/01/03 11:56:22;;;;;;;11.75;2.85;;;10.50;99.90;;;;;;5072820;28;20052;-88
2022/01/03 12:04:40;;;;;;;6.32;2.33;;;10.30;99.90;;;;;;5072837;28;20052;-83
2022/01/03 12:07:14;;;;;;;10.32;2.67;;;10.20;99.90;;;;;;5054753;28;20056;-83
2022/01/03 12:09:44;;;;;;;15.55;2.92;;;10.40;99.90;;;;;;5055935;28;20390;-84
2022/01/03 12:12:29;;;;;;;12.82;3.17;;;10.60;99.90;;;;;;5090262;28;20056;-84
2022/01/03 12:14:59;;;;;;;4.70;2.17;;;10.60;99.90;;;;;;5056388;28;20075;-87
2022/01/03 12:17:47;;;;;;;5.60;2.35;;;10.60;99.90;;;;;;5058121;28;20137;-87
2022/01/03 12:20:13;;;;;;;5.18;2.58;;;10.50;99.90;;;;;;5056048;28;20060;-85
2022/01/03 12:22:53;;;;;;;11.93;2.78;;;10.60;99.90;;;;;;5056021;28;20098;-87
2022/01/03 12:25:31;;;;;;;9.25;2.63;;;10.70;99.90;;;;;;5055484;28;20194;-86
2022/01/03 12:28:03;;;;;;;11.75;2.22;;;10.70;99.90;;;;;;5057191;28;20101;-86
2022/01/03 12:30:53;;;;;;;8.02;3.17;;;10.80;99.90;;;;;;5072937;28;20128;-85
2022/01/03 12:33:23;;;;;;;10.00;3.03;;;10.80;99.90;;;;;;5073546;28;20052;-86
2022/01/03 12:35:50;;;;;;;8.88;3.05;;;11.00;99.90;;;;;;5056304;28;20128;-85
2022/01/03 12:38:27;;;;;;;11.32;2.95;;;10.50;99.90;;;;;;5056611;28;20490;-86
2022/01/03 12:40:57;;;;;;;9.40;2.60;;;11.20;99.90;;;;;;5056664;28;20048;-85
2022/01/03 12:43:39;;;;;;;6.97;2.53;;;11.10;99.90;;;;;;5056527;28;20548;-85
2022/01/03 12:46:17;;;;;;;4.43;2.10;;;10.90;99.90;;;;;;5055893;28;20040;-86
2022/01/03 12:48:43;;;;;;;10.35;2.78;;;9.90;99.90;;;;;;5089521;28;20040;-86
2022/01/03 12:51:12;;;;;;;12.13;3.15;;;10.80;99.90;;;;;;5089934;28;20376;-87
2022/01/03 12:53:41;;;;;;;4.32;2.92;;;10.60;99.90;;;;;;5055679;28;20052;-88
2022/01/03 12:56:15;;;;;;;6.97;3.00;;;10.70;99.90;;;;;;5055772;28;20052;-86
2022/01/03 12:58:48;;;;;;;11.07;3.17;;;10.70;99.90;;;;;;5055674;28;20052;-86
2022/01/03 13:01:16;;;;;;;8.43;3.35;;;10.60;99.90;;;;;;5089848;28;20075;-86
2022/01/03 13:03:51;;;;;;;11.52;2.72;;;10.50;99.90;;;;;;5088969;28;20056;-87
2022/01/03 13:06:26;;;;;;;8.90;2.75;;;10.40;99.90;;;;;;5072322;28;20044;-87
2022/01/03 13:08:54;;;;;;;13.02;3.58;;;10.40;99.90;;;;;;5055351;28;20844;-86
2022/01/03 13:11:27;;;;;;;6.50;2.00;;;10.30;99.90;;;;;;5055603;28;20509;-86
2022/01/03 13:14:00;;;;;;;8.32;3.25;;;10.30;99.90;;;;;;5056220;28;20051;-86
2022/01/03 13:16:37;;;;;;;11.98;4.07;;;10.10;99.90;;;;;;5088742;28;20399;-86
2022/01/03 13:19:08;;;;;;;5.80;2.53;;;10.20;99.90;;;;;;5089206;28;20052;-86
2022/01/03 13:21:45;;;;;;;9.32;2.90;;;10.10;99.90;;;;;;5089200;28;20071;-87
2022/01/03 13:24:18;;;;;;;16.13;3.00;;;10.70;99.90;;;;;;5056383;28;20048;-86
2022/01/03 13:27:06;;;;;;;12.15;3.22;;;10.10;99.90;;;;;;5088581;28;20044;-86